Terminal Aerodrome Forecast
Issued by NWS Shreveport, LA

Home | Current Version | Previous Version | Text Only | Print | Product List | Glossary On
Versions: 1 2 3 4 5 6 7 8 9 10 11 12 13 14 15 16
000
FTUS44 KSHV 021100
TAFSHV
TAF
KSHV 021126Z 0212/0312 17007KT P6SM OVC008
      TEMPO 0212/0215 P6SM BKN015
     FM021500 19008KT P6SM BKN025
     FM021700 18010KT P6SM VCTS BKN035 BKN045CB
     FM021800 17010G16KT P6SM VCTS SCT045CB
     FM030000 17008KT P6SM FEW060 SCT250
     FM030900 16005KT P6SM BKN010=

USA.gov is the U.S. government's official web portal to all federal, state and local government web resources and services.